Gael Benítez

Chief Scout - Mitre
4 Dec 2028
Monday
Process

Personality

Adaptability (19) Ambition (13) Controversy (3) Loyalty (6) Pressure (9) Professionalism (16) Sportsmanship (3) Temperament (6)

Profile

Coaching Style Democratic
License Continental C
Determination 5
Man Management 6
Motivating 7
Discipline 3
Job Satisfaction
100%
Fatigue
0%
Role Chief Scout
Wage 15.4K p/w
Contract 14.03.2030

Performance

Behaviour Good
Training Effectiveness
19%
Player Development
25%
Injury Prevention
5%
Tactical Implementation
25%

Recent Events

Attended a recruitment meeting now
Attended a recruitment meeting now
Attended a recruitment meeting now
Attended a recruitment meeting now
Attended a recruitment meeting 7d ago
Attended a recruitment meeting 7d ago
Attended a recruitment meeting 7d ago
Attended a recruitment meeting 7d ago

Currently Monitoring

161
Player Club Status Ability Confidence Watched Last Observed Latest Vote
Juan Esteban Gómez Atletico Nacional Active 90 / 90 40% 1 02.06.2028 -
Fabrisio Mesías Alianza Lima Active 80 / 79 40% 1 02.06.2028 -
Joaquín Bigo Tristán Suárez Active 100 / 106 40% 3 30.05.2028 -
Kevin Soria Tigres Active 81 / 98 40% 1 30.05.2028 -
Juan Pablo Zozaya Estudiantes Active 119 / 127 40% 2 29.05.2028 -
Facundo Machado Racing Active 100 / 106 40% 3 27.05.2028 -
Alejo Medina Agropecuario Argentino Active 95 / 118 40% 1 27.05.2028 -
Lautaro Herrera Estudiantes Active 95 / 103 40% 1 26.05.2028 -
Jerónimo Osorno Deportivo Pasto Active 81 / 98 40% 1 26.05.2028 -
Alejandro Amaya Union Magdalena Active 90 / 100 40% 1 23.05.2028 -
Alex Payares Barranquilla Active 102 / 101 40% 1 23.05.2028 -
Mateo Clemente San Lorenzo Active 115 / 125 40% 1 22.05.2028 -
Luciano Peraggini Maipú Active 116 / 106 40% 1 21.05.2028 -
Anthony Cletus Bendel Insurance Active 97 / 108 40% 1 20.05.2028 -
Sebastián Amasifuén Alianza Lima Active 92 / 97 40% 1 17.05.2028 -
Tomás Palleres Güemes Active 99 / 103 40% 1 15.05.2028 -
Ramiro Méndez La Luz Active 121 / 113 40% 2 13.05.2028 Needs More Info
Edimer Zea Atletico Nacional Active 85 / 94 40% 1 13.05.2028 -
Ángel Maciel Tacuarembo Active 117 / 115 40% 3 11.05.2028 -
Stefano Condino All Boys Active 86 / 103 40% 2 11.05.2028 -
Anthony Vilche Colon Active 90 / 95 40% 2 09.05.2028 -
Juan David Lázaro Patriotas Active 102 / 104 40% 1 07.05.2028 -
Facundo Vila Estudiantes Active 111 / 113 40% 1 04.05.2028 -
Luciano Jachfe Nueva Chicago Active 124 / 115 40% 1 02.05.2028 Needs More Info
Lautaro Petruchi Gimnasia y Esgrima Active 108 / 116 40% 3 01.05.2028 -
Christian Ramadjingaye Aiglons Active 90 / 70 40% 2 01.05.2028 -
Josué Reinatti Newell's Old Boys Active 119 / 126 40% 1 28.04.2028 -
Mauro Casoli Talleres Active 97 / 110 40% 1 28.04.2028 -
Esteban Glellel Quilmes Active 128 / 112 40% 1 27.04.2028 -
Juan Pablo Rial San Telmo Active 117 / 110 40% 1 27.04.2028 -
Federico Bisanz Atlanta Active 110 / 120 40% 1 29.11.2026 -
Matías Núñez Carabobo Active 92 / 109 40% 1 29.11.2026 -
Cristhofer Mesías Universidad de Concepcion Active 115 / 109 40% 3 28.11.2026 -
Franco Vedoya Central Norte Active 98 / 117 40% 1 28.11.2026 -
Lucas Chiozza Alvarado Active 106 / 119 40% 1 28.11.2026 -
Jonathan Bilbao Carabobo Active 89 / 87 40% 1 28.11.2026 -
Nahuel González Alvarado Active 90 / 104 40% 1 27.11.2026 -
Elías Villar Nacional Active 79 / 104 40% 2 26.11.2026 -
Rafael Haller Liverpool Montevideo Active 98 / 105 40% 1 24.11.2026 -
Santiago Otegui Plaza Colonia Active 94 / 86 40% 1 24.11.2026 -
Moisés Gallo Aragua Active 94 / 94 40% 2 23.11.2026 -
Emiliano Ancheta Nacional Active 111 / 121 40% 1 22.11.2026 -
Lautaro Maldonado Instituto Active 106 / 104 40% 1 22.11.2026 -
Martín Ginzo Deportivo Maldonado Active 114 / 100 40% 2 20.11.2026 -
Tomás González Estudiantes Active 117 / 108 40% 2 20.11.2026 -
Jairo Amaro Cerro Active 87 / 98 40% 2 19.11.2026 -
Ignacio Yepez Cerrito Active 110 / 108 40% 3 18.11.2026 -
Franco Pérez Boston River Active 114 / 110 40% 2 16.11.2026 -
Augusto Gallo Fenix Active 97 / 93 40% 1 16.11.2026 -
Mauro Rodas Sportivo Trinidense Active 93 / 95 40% 2 15.11.2026 -
Jáder Valencia Deportes Tolima Active 101 / 121 40% 3 14.11.2026 -
Misael Jaime Chacarita Juniors Active 94 / 100 40% 1 14.11.2026 -
Guillermo Gandolfo Central Espanol Active 94 / 100 40% 1 14.11.2026 -
Gonzalo Gamarra Defensores Active 111 / 101 40% 1 14.11.2026 -
Gianluca Pugliese Güemes Active 111 / 122 40% 1 12.11.2026 -
David Veliz Güemes Active 115 / 106 40% 2 11.11.2026 -
Lawrence Ennali Houston Dynamo Active 130 / 120 40% 1 11.11.2026 -
Facundo Silvera Montevideo City Torque Active 109 / 102 40% 1 11.11.2026 -
Lucas Meuli Unión de Santa Fe Active 98 / 100 40% 1 10.11.2026 -
Ariel Castellano Alvarado Active 103 / 109 40% 2 09.11.2026 -
Diego Ulloa Colo-Colo Active 89 / 98 40% 1 09.11.2026 -
Nicolás Fernández Progreso Active 111 / 98 40% 2 06.11.2026 Needs More Info
Jorge Espejo Universidad de Concepcion Active 119 / 113 40% 1 06.11.2026 -
César Munder Palestino Active 120 / 120 40% 2 05.11.2026 -
Enzo Silcan Almagro Active 102 / 119 40% 3 04.11.2026 -
Estanislao Jara Madryn Active 120 / 96 40% 1 04.11.2026 Needs More Info
Francisco Salerno Defensores Unidos Active 113 / 97 40% 1 04.11.2026 -
Yeferson Cordova Llaneros Active 81 / 94 40% 1 03.11.2026 -
Leomar Mosquera Trujillanos Active 93 / 105 40% 2 02.11.2026 -
Juan Quintana Montevideo City Torque Active 101 / 106 40% 2 02.11.2026 -
Martín Sarrafiore O'Higgins Active 122 / 118 40% 1 01.11.2026 -
Nahuel Manganelli San Martín Active 106 / 106 40% 2 31.10.2026 -
Aldo Pérez Guarani Active 101 / 112 40% 1 31.10.2026 Needs More Info
Matías Bazzi Talleres Active 106 / 88 40% 1 31.10.2026 -
Jonás Luna Wanderers Active 119 / 125 40% 1 29.10.2026 -
Gonzalo Flores Almirante Brown Active 101 / 100 40% 1 28.10.2026 -
Braian Galván Oriental Active 105 / 111 40% 2 25.10.2026 -
Maicol Ferreira Danubio Active 101 / 106 40% 2 25.10.2026 -
Renzo Reynaga Patronato Active 122 / 115 40% 2 22.10.2026 -
Juan Yangali San Telmo Active 122 / 104 40% 1 22.10.2026 -
Carlos Airala Albion Active 89 / 103 40% 1 21.10.2026 -
Javier Mena Deportivo Pereira Active 89 / 106 40% 1 21.10.2026 -
Tomás Ferreyra Defensores Unidos Active 120 / 103 40% 1 20.10.2026 -
Joaquín Trasante Danubio Active 93 / 97 40% 1 20.10.2026 -
Gabriel Carrasco Los Andes Active 102 / 100 40% 2 19.10.2026 -
Leandro Umpiérrez Penarol Active 98 / 104 40% 1 19.10.2026 -
Francisco Casanova Cerrito Active 95 / 112 40% 4 18.10.2026 -
Braian Aranda Agropecuario Argentino Active 117 / 121 40% 1 17.10.2026 -
Mario Sanabria Chacarita Juniors Active 117 / 102 40% 1 15.10.2026 -
Simón Contreras Iquique Active 101 / 86 40% 1 15.10.2026 -
Matías Mir Liverpool Montevideo Active 105 / 117 40% 1 15.10.2026 -
Fernando Miranda Colegiales Active 95 / 120 40% 1 15.10.2026 -
Nahuel Sena Cerro Active 106 / 108 40% 2 12.10.2026 -
Leonardo Olavarría Uruguay Montevideo Active 91 / 107 40% 2 12.10.2026 -
Pedro Silva Torrejón Gimnasia La Plata Active 129 / 127 40% 1 12.10.2026 -
Ángel Espínola Sportivo Luqueno Active 104 / 106 40% 1 10.10.2026 -
Wilfredo Peña Portuguesa Active 107 / 89 40% 1 09.10.2026 -
Lucas Monzón Alvarado Active 116 / 112 40% 1 09.10.2026 -
Mauricio Guzmán Tristán Suárez Active 99 / 100 40% 1 08.10.2026 -
Nahuel Pezzini Arsenal Active 116 / 96 40% 1 06.10.2026 -
Agustín Pereira Albion Active 114 / 107 40% 2 05.10.2026 -
Edgar Zaldívar Atlas Active 106 / 117 40% 2 04.10.2026 -
Matías Espíndola Deportivo Maldonado Active 114 / 120 40% 1 03.10.2026 -
Raul Castillo Puebla Active 119 / 116 40% 1 01.10.2026 -
Alejo Dramisino Atlanta Active 121 / 111 40% 1 01.10.2026 -
Oscar Meza Portuguesa Active 83 / 83 40% 1 29.09.2026 -
Luis Guevara Real Cartagena Active 106 / 101 40% 1 29.09.2026 -
Julián Vila Arsenal Active 119 / 97 40% 1 29.09.2026 -
Tobías Macies Almagro Active 110 / 90 40% 1 27.09.2026 -
Marcio Gómez Racing Active 102 / 97 40% 1 27.09.2026 -
Camilo Sánchez Miramar Misiones Active 92 / 97 40% 1 26.09.2026 -
Luciano Fernández Central Espanol Active 105 / 94 40% 2 24.09.2026 -
Álvaro San Emeterio Tacuarembo Active 94 / 89 40% 1 24.09.2026 -
Bastián Yáñez O'Higgins Active 121 / 124 40% 3 23.09.2026 -
Facundo Silvestre Uruguay Montevideo Active 100 / 104 40% 1 22.09.2026 -
Franco Malagueño Colegiales Active 106 / 95 40% 1 20.09.2026 -
Dylan Lozano Aguilas Doradas Active 99 / 116 40% 1 20.09.2026 -
Diego Villalba Plaza Colonia Active 90 / 93 40% 1 19.09.2026 -
Marco Collao Audax Italiano Active 103 / 103 40% 1 18.09.2026 -
Santiago Costa Albion Active 117 / 98 40% 2 17.09.2026 -
Cristian Lima Uruguay Montevideo Active 105 / 97 40% 1 17.09.2026 -
Éwil Murillo Santa Fe Active 129 / 124 40% 3 16.09.2026 -
Jhojan Torres Santa Fe Active 113 / 124 40% 2 16.09.2026 -
Isaí Valladares Zamora Active 103 / 110 40% 1 14.09.2026 -
Santiago Guzmán Wanderers Active 88 / 97 40% 1 14.09.2026 -
Zahid Muñoz Morelia Active 118 / 113 40% 1 13.09.2026 -
Gabriel Chocobar Oriental Active 88 / 99 40% 1 13.09.2026 -
Juan Miguel Betancourth Deportivo Pereira Active 72 / 92 40% 1 12.09.2026 -
Jhon Navia Junior Active 110 / 97 40% 1 10.09.2026 -
Franco Suárez Racing Active 83 / 92 40% 1 10.09.2026 -
Juan Camilo Mosquera Atletico Bucaramanga Active 105 / 125 40% 2 04.09.2026 -
Diego Núñez Colon Active 101 / 91 40% 1 03.09.2026 -
Mateo Puerta Deportivo Cali Active 118 / 123 40% 1 02.09.2026 -
Cristóbal Guerra San Marcos de Arica Active 107 / 95 40% 1 02.09.2026 -
Brian Farioli Estudiantes Active 117 / 123 40% 1 01.09.2026 -
Diego Giraldo Universitario Popayan Active 101 / 99 40% 1 29.08.2026 -
Germán Peralta La Luz Active 98 / 96 40% 1 28.08.2026 -
Carlo Villanueva Union La Calera Active 88 / 93 40% 1 28.08.2026 -
Félix Charrupí Atletico Bucaramanga Active 119 / 121 40% 1 27.08.2026 -
Agustín Chopitea Colon Active 108 / 107 40% 2 26.08.2026 -
Brayan Murillo Envigado Active 84 / 93 40% 1 24.08.2026 -
Brian González Atenas Active 94 / 88 40% 1 23.08.2026 -
Esteban Beltrán Jaguares Active 100 / 97 40% 1 20.08.2026 -
Adrián Vila Rampla Juniors Active 84 / 93 40% 1 20.08.2026 -
Joiner Moreno Real Cartagena Active 108 / 113 40% 1 19.08.2026 -
Ezequiel Navarro Montoya Atlanta United FC Active 85 / 102 40% 1 19.08.2026 -
Léider Riascos Llaneros Active 119 / 116 40% 2 18.08.2026 -
Christopher Montaña Portuguesa Active 108 / 95 40% 1 18.08.2026 -
Yamil García Rampla Juniors Active 102 / 86 40% 1 16.08.2026 -
Lucas Arzamendia Atenas Active 97 / 103 40% 1 14.08.2026 -
Williams Barlasina Fortaleza CEIF Active 106 / 113 40% 1 13.08.2026 -
Déiber Caicedo Junior Active 117 / 127 40% 1 12.08.2026 -
Esteban Rodríguez Uruguay Montevideo Active 76 / 76 40% 1 10.08.2026 -
Jairo O'Neill Boston River Active 101 / 88 40% 1 10.08.2026 -
Nicolás Rodríguez Oriental Active 85 / 97 40% 1 10.08.2026 -
César González Queretaro Active 88 / 80 40% 1 10.08.2026 -
Roameth Romaña Llaneros Active 87 / 92 40% 1 09.08.2026 -
Enzo Porro Wanderers Active 87 / 89 40% 1 08.08.2026 -
Agustín da Silveira Sportivo Trinidense Active 97 / 113 40% 1 04.08.2026 -
Nicolás Rossi Juventud Active 119 / 111 40% 1 03.08.2026 -
Sebastián Vargas Nacional Active 111 / 98 40% 1 02.08.2026 -